Latest Weather Observations for Grove

IDT60901

Issued at 10:51 pm EDT Sunday 11 December 2016 (issued every 10 minutes, with the page automatically refreshed every 10 minutes)

About weather observations | Map of Hobart area stations | Latest observations for Hobart area | Other Formats
Station Details ID: 094220 Name: GROVE (RESEARCH STATION) Lat: -42.99 Lon: 147.07 Height: 65.0 m
Data from the previous 72 hours. | See also: Recent months at Grove
Date/Time
EDT
Temp
°C
App
Temp
°C
Dew
Point
°C
Rel
Hum
%
Delta-T
°C
Wind Press
QNH
hPa
Press
MSL
hPa
Rain since
9am
mm
Dir  Spd
km/h
Gust
km/h
Spd
kts
Gust
kts
11/10:30pm 10.7 8.9 7.1 78 1.7 NNE 6 9 3 5 - - 0.0
11/10:00pm 10.9 8.6 7.4 79 1.7 N 9 11 5 6 - - 0.0
11/09:30pm 11.3 8.9 7.1 75 2.0 NE 9 15 5 8 - - 0.0
11/09:00pm 11.8 10.0 7.0 72 2.3 NE 6 11 3 6 - - 0.0
11/08:30pm 12.8 10.1 7.2 69 2.7 NE 11 20 6 11 - - 0.0
11/08:00pm 13.4 9.9 7.0 65 3.1 E 15 22 8 12 - - 0.0
11/07:30pm 14.4 10.2 7.3 62 3.5 E 19 26 10 14 - - 0.0
11/07:00pm 15.1 11.0 7.7 61 3.7 E 19 28 10 15 - - 0.0
11/06:30pm 15.2 10.4 7.3 59 3.9 E 22 30 12 16 - - 0.0
11/06:00pm 16.4 12.7 8.1 58 4.2 ESE 17 28 9 15 - - 0.0
11/05:30pm 17.3 13.6 8.1 54 4.7 E 17 26 9 14 - - 0.0
11/05:00pm 17.2 13.9 8.0 54 4.7 ESE 15 22 8 12 - - 0.0
11/04:30pm 17.3 13.1 7.6 53 4.9 E 19 26 10 14 - - 0.0
11/04:00pm 17.1 13.3 7.6 53 4.8 E 17 22 9 12 - - 0.0
11/03:30pm 18.3 14.1 8.2 51 5.2 E 20 30 11 16 - - 0.0
11/03:00pm 18.2 14.5 7.8 50 5.3 E 17 26 9 14 - - 0.0
11/02:30pm 18.3 15.0 8.0 51 5.3 E 15 22 8 12 - - 0.0
11/02:00pm 19.5 17.2 9.1 51 5.5 ESE 11 17 6 9 - - 0.0
11/01:30pm 18.5 15.2 4.5 39 6.7 S 11 17 6 9 - - 0.0
11/01:00pm 18.6 15.4 5.2 41 6.5 SSE 11 20 6 11 - - 0.0
11/12:30pm 18.2 14.9 4.6 40 6.5 SSW 11 19 6 10 - - 0.0
11/12:00pm 17.3 14.0 6.3 48 5.4 S 13 20 7 11 - - 0.0
11/11:30am 17.0 14.0 5.9 48 5.4 SW 11 17 6 9 - - 0.0
11/11:00am 17.0 14.0 5.9 48 5.4 SSW 11 19 6 10 - - 0.0
11/10:30am 15.8 12.0 5.6 50 4.9 S 15 24 8 13 - - 0.0
11/10:00am 15.5 11.5 4.9 49 5.0 SW 15 22 8 12 - - 0.0
11/09:30am 15.2 11.4 5.6 52 4.6 WSW 15 26 8 14 - - 0.0
11/09:00am 14.2 11.4 7.0 62 3.5 SW 11 17 6 9 - - 0.0
11/08:30am 13.7 13.0 8.7 72 2.5 NNE 2 7 1 4 - - 0.0
11/08:00am 12.1 11.9 9.1 82 1.5 CALM 0 0 0 0 - - 0.0
11/07:30am 10.7 9.2 9.3 91 0.7 W 7 9 4 5 - - 0.0
11/07:00am 10.6 9.1 9.0 90 0.8 ESE 7 15 4 8 - - 0.0
11/06:30am 9.2 7.8 8.8 97 0.2 N 6 9 3 5 - - 0.0
11/06:00am 9.1 8.8 8.7 97 0.2 CALM 0 0 0 0 - - 0.0
11/05:30am 9.2 8.9 8.6 96 0.3 CALM 0 0 0 0 - - 0.0
11/05:00am 9.4 9.2 9.0 97 0.2 CALM 0 0 0 0 - - 0.0
11/04:30am 9.5 8.5 8.9 96 0.3 NNE 4 6 2 3 - - 0.0
11/04:00am 9.6 8.6 9.0 96 0.3 N 4 6 2 3 - - 0.0
11/03:30am 9.7 8.3 8.9 95 0.4 N 6 7 3 4 - - 0.0
11/03:00am 9.5 8.5 8.9 96 0.3 NNE 4 7 2 4 - - 0.0
11/02:30am 9.6 8.2 8.8 95 0.4 E 6 7 3 4 - - 0.0
11/02:00am 9.6 9.0 9.0 96 0.3 N 2 6 1 3 - - 0.0
11/01:30am 9.3 8.9 8.3 93 0.5 CALM 0 0 0 0 - - 0.0
11/01:00am 9.5 9.2 8.5 93 0.5 CALM 0 0 0 0 - - 0.0
11/12:30am 9.1 8.8 8.5 96 0.3 CALM 0 0 0 0 - - 0.0
11/12:00am 9.8 9.4 8.4 91 0.7 CALM 0 0 0 0 - - 0.0
 
Date/Time
EDT
Temp
°C
App
Temp
°C
Dew
Point
°C
Rel
Hum
%
Delta-T
°C
Wind Press
QNH
hPa
Press
MSL
hPa
Rain since
9am
mm
Dir  Spd
km/h
Gust
km/h
Spd
kts
Gust
kts
10/11:30pm 10.3 9.7 9.1 92 0.6 WNW 2 7 1 4 - - 0.0
10/11:00pm 10.9 9.3 8.9 87 1.0 W 7 9 4 5 - - 0.0
10/10:30pm 11.0 9.6 8.8 86 1.1 SSW 6 9 3 5 - - 0.0
10/10:00pm 11.4 9.4 8.8 84 1.3 WSW 9 13 5 7 - - 0.0
10/09:30pm 11.5 9.9 8.9 84 1.3 SSW 7 11 4 6 - - 0.0
10/09:00pm 11.7 9.6 8.3 79 1.7 SSW 9 15 5 8 - - 0.0
10/08:30pm 12.0 8.7 8.1 77 1.9 SW 15 24 8 13 - - 0.0
10/08:00pm 12.1 9.4 8.9 81 1.6 WSW 13 19 7 10 - - 0.0
10/07:30pm 13.5 9.8 7.8 68 2.8 SW 17 32 9 17 - - 0.0
10/07:00pm 15.1 12.7 7.0 58 4.0 W 9 17 5 9 - - 0.0
10/06:30pm 15.6 12.6 7.6 59 4.0 WSW 13 22 7 12 - - 0.0
10/06:00pm 15.8 12.1 8.1 60 3.9 WSW 17 28 9 15 - - 0.0
10/05:30pm 15.7 12.1 8.4 62 3.7 WSW 17 22 9 12 - - 0.0
10/05:00pm 15.8 13.3 8.3 61 3.8 W 11 19 6 10 - - 0.0
10/04:30pm 16.1 12.8 8.0 58 4.1 W 15 26 8 14 - - 0.0
10/04:00pm 16.2 13.9 7.4 56 4.4 W 9 20 5 11 - - 0.0
10/03:30pm 15.9 13.2 7.5 57 4.2 W 11 19 6 10 - - 0.0
10/03:00pm 16.1 13.3 7.0 54 4.5 WNW 11 22 6 12 - - 0.0
10/02:30pm 15.8 14.1 7.4 57 4.2 WNW 6 13 3 7 - - 0.0
10/02:00pm 15.0 13.2 7.8 62 3.6 N 7 11 4 6 - - 0.0
10/01:30pm 14.8 12.0 6.8 58 3.9 N 11 17 6 9 - - 0.0
10/01:00pm 14.8 11.1 6.1 56 4.2 NW 15 33 8 18 - - 0.0
10/12:30pm 14.9 11.3 6.7 58 4.0 NNW 15 22 8 12 - - 0.0
10/12:00pm 15.1 11.4 6.5 56 4.2 NW 15 24 8 13 - - 0.0
10/11:30am 15.4 11.4 6.6 55 4.3 WNW 17 32 9 17 - - 0.0
10/11:00am 15.1 12.1 6.2 55 4.3 WNW 11 20 6 11 - - 0.0
10/10:30am 15.1 12.2 6.5 56 4.2 W 11 15 6 8 - - 0.0
10/10:00am 15.3 11.7 6.7 56 4.2 WSW 15 22 8 12 - - 0.0
10/09:30am 14.5 11.7 6.9 60 3.7 SW 11 19 6 10 - - 0.0
10/09:00am 14.0 10.8 6.8 62 3.5 WSW 13 28 7 15 - - 0.4
10/08:30am 14.0 10.4 6.8 62 3.5 WSW 15 22 8 12 - - 0.4
10/08:00am 13.3 10.8 6.7 64 3.2 WSW 9 15 5 8 - - 0.4
10/07:30am 12.6 10.2 7.0 68 2.7 SW 9 15 5 8 - - 0.4
10/07:00am 12.7 11.1 6.2 64 3.1 ESE 4 13 2 7 - - 0.4
10/06:30am 11.9 9.0 6.4 69 2.6 E 11 17 6 9 - - 0.4
10/06:00am 11.3 9.3 6.2 71 2.4 NE 6 7 3 4 - - 0.4
10/05:30am 11.8 9.4 5.3 64 3.0 SSW 7 11 4 6 - - 0.4
10/05:00am 11.4 9.0 5.3 66 2.8 SW 7 13 4 7 - - 0.4
10/04:30am 11.6 8.7 4.8 63 3.1 WSW 9 17 5 9 - - 0.4
10/04:00am 11.3 8.5 5.0 65 2.9 SW 9 17 5 9 - - 0.4
10/03:30am 11.2 7.9 4.8 64 2.9 WSW 11 19 6 10 - - 0.4
10/03:00am 10.8 7.6 4.9 67 2.7 WSW 11 17 6 9 - - 0.4
10/02:30am 10.8 7.9 4.6 65 2.8 SW 9 15 5 8 - - 0.4
10/02:00am 10.9 7.9 3.9 62 3.1 SW 9 19 5 10 - - 0.4
10/01:30am 10.5 7.6 4.5 66 2.7 WSW 9 17 5 9 - - 0.4
10/01:00am 10.5 7.9 4.2 65 2.8 SW 7 13 4 7 - - 0.4
10/12:30am 10.7 7.6 3.7 62 3.1 SW 9 19 5 10 - - 0.4
10/12:00am 10.2 7.2 4.1 66 2.7 S 9 15 5 8 - - 0.4
 
Date/Time
EDT
Temp
°C
App
Temp
°C
Dew
Point
°C
Rel
Hum
%
Delta-T
°C
Wind Press
QNH
hPa
Press
MSL
hPa
Rain since
9am
mm
Dir  Spd
km/h
Gust
km/h
Spd
kts
Gust
kts
09/11:30pm 10.0 6.9 3.6 64 2.8 SW 9 13 5 7 - - 0.4
09/11:00pm 9.5 6.4 3.8 67 2.5 WSW 9 15 5 8 - - 0.4
09/10:30pm 9.6 6.5 3.7 66 2.6 WSW 9 11 5 6 - - 0.4
09/10:00pm 9.5 6.3 3.0 64 2.8 WSW 9 13 5 7 - - 0.4
09/09:30pm 10.2 5.7 2.2 57 3.4 WSW 15 26 8 14 - - 0.4
09/09:00pm 10.2 6.5 2.5 59 3.3 WSW 11 19 6 10 - - 0.4
09/08:30pm 10.1 6.2 3.2 62 3.0 WSW 13 19 7 10 - - 0.4
09/08:00pm 10.3 6.0 3.5 62 3.0 WSW 15 24 8 13 - - 0.4
09/07:30pm 10.6 5.9 3.0 59 3.3 W 17 26 9 14 - - 0.4
09/07:00pm 10.6 5.0 3.3 60 3.2 WSW 22 35 12 19 - - 0.4
09/06:30pm 11.1 5.1 3.4 59 3.4 WSW 24 37 13 20 - - 0.4
09/06:00pm 11.3 5.1 4.2 61 3.2 WSW 26 43 14 23 - - 0.4
09/05:33pm 11.3 4.6 3.4 58 3.5 WSW 28 46 15 25 - - 0.4
09/05:30pm 11.3 5.0 3.9 60 3.3 WSW 26 44 14 24 - - 0.4
09/05:08pm 12.5 5.7 3.0 52 4.2 WSW 28 46 15 25 - - 0.4
09/05:00pm 11.9 4.6 2.5 52 4.1 WSW 30 43 16 23 - - 0.4
09/04:42pm 13.0 6.0 2.2 48 4.7 WSW 28 48 15 26 - - 0.4
09/04:30pm 12.3 5.5 3.0 53 4.1 WSW 28 43 15 23 - - 0.4
09/04:00pm 12.9 5.1 2.7 50 4.5 WSW 33 54 18 29 - - 0.4
09/03:30pm 12.6 4.8 1.4 46 4.8 WSW 32 50 17 27 - - 0.4
09/03:09pm 13.4 6.4 4.0 53 4.3 WSW 30 48 16 26 - - 0.4
09/03:00pm 13.6 6.0 3.7 51 4.5 WSW 33 48 18 26 - - 0.4
09/02:45pm 12.8 5.7 1.6 46 4.8 WSW 28 46 15 25 - - 0.4
09/02:30pm 12.0 5.4 2.0 50 4.3 WSW 26 46 14 25 - - 0.4
09/02:00pm 12.7 4.3 1.5 46 4.8 WSW 35 57 19 31 - - 0.4
09/01:30pm 13.2 5.5 2.2 47 4.8 WSW 32 52 17 28 - - 0.2
09/01:02pm 13.0 6.2 3.1 51 4.4 WSW 28 48 15 26 - - 0.2
09/01:00pm 12.6 6.2 3.1 52 4.2 WSW 26 44 14 24 - - 0.2
09/12:30pm 12.5 6.0 4.9 60 3.5 W 28 43 15 23 - - 0.2
09/12:00pm 10.8 3.7 3.3 60 3.3 WSW 30 43 16 23 - - 0.2
09/11:30am 9.8 3.1 3.9 66 2.6 WSW 28 43 15 23 - - 0.2
09/11:00am 11.3 6.4 5.0 65 2.9 WSW 20 41 11 22 - - 0.2
09/10:30am 10.1 4.7 4.5 68 2.5 W 22 33 12 18 - - 0.2
09/10:00am 8.7 4.2 4.1 73 2.0 SW 17 24 9 13 - - 0.2
09/09:30am 8.9 3.7 2.2 63 2.8 WSW 19 24 10 13 - - 0.0
09/09:00am 7.9 2.8 2.9 70 2.1 SW 19 39 10 21 - - 1.0
09/08:30am 9.0 3.4 0.9 57 3.3 WSW 20 35 11 19 - - 1.0
09/08:00am 8.8 3.3 1.8 61 2.9 WSW 20 28 11 15 - - 1.0
09/07:30am 8.0 2.0 1.1 62 2.8 WSW 22 35 12 19 - - 1.0
09/07:00am 8.0 2.1 1.4 63 2.7 WSW 22 37 12 20 - - 1.0
09/06:30am 7.6 1.2 1.2 64 2.6 WSW 24 41 13 22 - - 1.0
09/06:00am 7.5 2.1 2.5 70 2.1 WSW 20 39 11 21 - - 1.0
09/05:30am 7.5 2.3 2.5 70 2.1 WSW 19 28 10 15 - - 1.0
09/05:00am 7.6 2.4 2.6 70 2.1 WSW 19 28 10 15 - - 1.0
09/04:30am 8.1 2.8 2.9 70 2.2 W 20 32 11 17 - - 1.0
09/04:00am 8.4 2.4 3.3 70 2.2 W 24 37 13 20 - - 1.0
09/03:30am 8.5 1.8 3.4 70 2.2 WSW 28 43 15 23 - - 1.0
09/03:00am 8.5 3.2 5.2 80 1.5 WSW 22 37 12 20 - - 1.0
09/02:30am 8.7 3.1 5.4 80 1.5 WSW 24 39 13 21 - - 1.0
09/02:00am 9.0 3.3 5.0 76 1.8 W 24 33 13 18 - - 1.0
09/01:30am 9.4 4.4 4.7 72 2.1 WSW 20 33 11 18 - - 1.0
09/01:00am 9.9 4.1 4.3 68 2.5 WSW 24 43 13 23 - - 1.0
09/12:30am 10.3 4.2 4.8 69 2.5 WSW 26 43 14 23 - - 1.0
09/12:09am 10.8 4.4 5.4 69 2.5 WSW 28 46 15 25 - - 1.0
09/12:00am 11.0 4.7 5.6 69 2.5 W 28 46 15 25 - - 1.0
 
Date/Time
EDT
Temp
°C
App
Temp
°C
Dew
Point
°C
Rel
Hum
%
Delta-T
°C
Wind Press
QNH
hPa
Press
MSL
hPa
Rain since
9am
mm
Dir  Spd
km/h
Gust
km/h
Spd
kts
Gust
kts
08/11:56pm 11.0 4.7 5.8 70 2.4 W 28 46 15 25 - - 1.0
08/11:30pm 11.5 6.0 5.9 68 2.6 WSW 24 43 13 23 - - 1.0
08/11:00pm 11.9 5.9 6.9 71 2.4 W 28 43 15 23 - - 1.0

Latest Capital City Observations: Canberra | Sydney | Melbourne | Brisbane | Adelaide | Perth | Hobart | Darwin

Other Formats:

Comma delimited format used in spreadsheet applications
http://www.bom.gov.au/fwo/IDT60901/IDT60901.95977.axf

JavaScript Object Notation format (JSON) in row-major order
http://www.bom.gov.au/fwo/IDT60901/IDT60901.95977.json